Stephens, Missouri
Current Conditions -  °F | °C
As of 3:54 AM on Tuesday 27 Jan 2015 (Local Time) from KCOU Reporting Station
Clear Clear  
Wind Chill: -2°   Ceiling: Unl
Heat Index:   Visibility: 10mi
Dew Point: -1°   Wind: 7mph
Humidity: 89%   Direction: 340°NNW
Pressure: 30.02"   Gusts: NA
Location:  39.0235°N, 92.2896°W
Report Text: KCOU 270954Z AUTO 34006KT 10SM CLR 01/M01 A3002 RMK AO2 SLP170 T00111006
Loading
Personal Weather Stations






























Interactive Weather Map New forecast layout! Learn more

10-Day Weather Forecast

Advertisements
Track Severe Weather on mobile